createdAt,value
2017-10-24T00:00:07.376Z,11.35
2017-10-24T00:01:07.356Z,11.32
2017-10-24T00:02:07.330Z,11.29
2017-10-24T00:03:07.467Z,11.40
2017-10-24T00:04:07.304Z,11.37
2017-10-24T00:05:07.291Z,11.33
2017-10-24T00:06:07.281Z,11.40
2017-10-24T00:07:07.265Z,11.35
2017-10-24T00:08:07.260Z,11.42
2017-10-24T00:09:07.298Z,11.44
2017-10-24T00:10:07.238Z,11.42
2017-10-24T00:11:07.204Z,11.44
2017-10-24T00:12:07.210Z,11.42
2017-10-24T00:13:07.184Z,11.42
2017-10-24T00:14:07.163Z,11.51
2017-10-24T00:15:07.444Z,11.44
2017-10-24T00:16:07.137Z,11.52
2017-10-24T00:17:07.126Z,11.47
2017-10-24T00:18:07.106Z,11.46
2017-10-24T00:19:07.094Z,11.49
2017-10-24T00:20:07.079Z,11.55
2017-10-24T00:21:07.367Z,11.52
2017-10-24T00:22:07.050Z,11.49
2017-10-24T00:23:07.054Z,11.52
2017-10-24T00:24:07.031Z,11.57
2017-10-24T00:25:07.018Z,11.51
2017-10-24T00:26:06.996Z,11.49
2017-10-24T00:27:07.047Z,11.60
2017-10-24T00:28:06.964Z,11.54
2017-10-24T00:29:06.955Z,11.52
2017-10-24T00:30:06.946Z,11.54
2017-10-24T00:31:06.924Z,11.57
2017-10-24T00:32:06.909Z,11.60
2017-10-24T00:33:06.959Z,11.52
2017-10-24T00:34:06.882Z,11.60
2017-10-24T00:35:06.869Z,11.58
2017-10-24T00:36:06.852Z,11.52
2017-10-24T00:37:06.845Z,11.55
2017-10-24T00:38:06.828Z,11.54
2017-10-24T00:39:06.883Z,11.55
2017-10-24T00:40:06.795Z,11.60
2017-10-24T00:41:06.785Z,11.62
2017-10-24T00:42:06.795Z,11.51
2017-10-24T00:43:06.766Z,11.55
2017-10-24T00:44:06.744Z,11.47
2017-10-24T00:45:06.877Z,11.55
2017-10-24T00:46:06.728Z,11.57
2017-10-24T00:47:06.706Z,11.52
2017-10-24T00:48:06.687Z,11.49
2017-10-24T00:49:06.695Z,11.58
2017-10-24T00:50:06.660Z,11.52
2017-10-24T00:51:06.724Z,11.52
2017-10-24T00:52:06.632Z,11.51
2017-10-24T00:53:06.621Z,11.57
2017-10-24T00:54:06.602Z,11.55
2017-10-24T00:55:06.588Z,11.44
2017-10-24T00:56:06.577Z,11.49
2017-10-24T00:57:06.719Z,11.44
2017-10-24T00:58:06.545Z,11.44
2017-10-24T00:59:06.529Z,11.44
2017-10-24T01:00:06.522Z,11.39
2017-10-24T01:01:06.512Z,11.40
2017-10-24T01:02:06.506Z,11.40
2017-10-24T01:03:06.853Z,11.40
2017-10-24T01:04:06.468Z,11.37
2017-10-24T01:05:06.462Z,11.36
2017-10-24T01:06:06.440Z,11.40
2017-10-24T01:07:06.428Z,11.40
2017-10-24T01:08:06.414Z,11.51
2017-10-24T01:09:06.735Z,11.46
2017-10-24T01:10:06.379Z,11.47
2017-10-24T01:11:06.369Z,11.44
2017-10-24T01:12:06.355Z,11.47
2017-10-24T01:13:06.338Z,11.46
2017-10-24T01:14:06.324Z,11.44
2017-10-24T01:15:06.457Z,11.44
2017-10-24T01:16:06.316Z,11.47
2017-10-24T01:17:06.285Z,11.49
2017-10-24T01:18:06.279Z,11.47
2017-10-24T01:19:06.254Z,11.49
2017-10-24T01:20:06.239Z,11.47
2017-10-24T01:21:06.270Z,11.51
2017-10-24T01:22:06.210Z,11.54
2017-10-24T01:23:06.198Z,11.57
2017-10-24T01:24:06.184Z,11.52
2017-10-24T01:25:06.171Z,11.47
2017-10-24T01:26:06.157Z,11.51
2017-10-24T01:27:06.279Z,11.58
2017-10-24T01:28:06.127Z,11.55
2017-10-24T01:29:06.114Z,11.58
2017-10-24T01:30:06.100Z,11.60
2017-10-24T01:31:06.098Z,11.60
2017-10-24T01:32:06.072Z,11.61
2017-10-24T01:33:06.419Z,11.60
2017-10-24T01:34:06.047Z,11.60
2017-10-24T01:35:06.028Z,11.58
2017-10-24T01:36:06.015Z,11.51
2017-10-24T01:37:06.002Z,11.49
2017-10-24T01:38:05.986Z,11.49
2017-10-24T01:39:06.027Z,11.55
2017-10-24T01:40:05.968Z,11.60
2017-10-24T01:41:05.945Z,11.60
2017-10-24T01:42:05.938Z,11.61
2017-10-24T01:43:05.924Z,11.58
2017-10-24T01:44:05.901Z,11.65
2017-10-24T01:45:05.928Z,11.57
2017-10-24T01:46:05.895Z,11.57
2017-10-24T01:47:05.868Z,11.62
2017-10-24T01:48:06.280Z,11.65
2017-10-24T01:49:05.831Z,11.61
2017-10-24T01:50:05.822Z,11.70
2017-10-24T01:51:05.810Z,11.64
2017-10-24T01:52:05.801Z,11.67
2017-10-24T01:53:05.780Z,11.67
2017-10-24T01:54:05.814Z,11.64
2017-10-24T01:55:05.753Z,11.70
2017-10-24T01:56:05.753Z,11.73
2017-10-24T01:57:05.732Z,11.64
2017-10-24T01:58:05.715Z,11.72
2017-10-24T01:59:05.702Z,11.70
2017-10-24T02:00:05.733Z,11.67
2017-10-24T02:01:05.668Z,11.73
2017-10-24T02:02:05.654Z,11.72
2017-10-24T02:03:05.642Z,11.64
2017-10-24T02:04:05.625Z,11.73
2017-10-24T02:05:05.613Z,11.61
2017-10-24T02:06:05.873Z,11.62
2017-10-24T02:07:05.587Z,11.62
2017-10-24T02:08:05.574Z,11.67
2017-10-24T02:09:05.558Z,11.70
2017-10-24T02:10:05.542Z,11.78
2017-10-24T02:11:05.545Z,11.70
2017-10-24T02:12:05.552Z,11.80
2017-10-24T02:13:05.502Z,11.65
2017-10-24T02:14:05.491Z,11.69
2017-10-24T02:15:05.549Z,11.80
2017-10-24T02:16:05.463Z,11.79
2017-10-24T02:17:05.468Z,11.80
2017-10-24T02:18:05.446Z,11.83
2017-10-24T02:19:05.430Z,11.78
2017-10-24T02:20:05.411Z,11.82
2017-10-24T02:21:05.723Z,11.76
2017-10-24T02:22:05.387Z,11.85
2017-10-24T02:23:05.367Z,11.82
2017-10-24T02:24:05.354Z,11.88
2017-10-24T02:25:05.349Z,11.83
2017-10-24T02:26:05.326Z,11.86
2017-10-24T02:27:05.385Z,11.85
2017-10-24T02:28:05.297Z,11.88
2017-10-24T02:29:05.284Z,11.86
2017-10-24T02:30:05.272Z,11.82
2017-10-24T02:31:05.255Z,11.80
2017-10-24T02:32:05.250Z,11.82
2017-10-24T02:33:05.467Z,11.80
2017-10-24T02:34:05.217Z,11.83
2017-10-24T02:35:05.215Z,11.88
2017-10-24T02:36:06.348Z,11.85
2017-10-24T02:37:05.177Z,11.82
2017-10-24T02:38:05.164Z,11.86
2017-10-24T02:39:05.176Z,11.95
2017-10-24T02:40:05.132Z,11.88
2017-10-24T02:41:05.125Z,11.82
2017-10-24T02:42:05.106Z,11.96
2017-10-24T02:43:05.121Z,11.91
2017-10-24T02:44:05.079Z,11.86
2017-10-24T02:45:05.070Z,11.80
2017-10-24T02:46:05.052Z,11.96
2017-10-24T02:47:05.045Z,11.88
2017-10-24T02:48:05.373Z,11.99
2017-10-24T02:49:05.007Z,11.85
2017-10-24T02:50:04.997Z,11.95
2017-10-24T02:51:04.982Z,11.85
2017-10-24T02:52:04.967Z,11.98
2017-10-24T02:53:04.957Z,11.88
2017-10-24T02:54:05.283Z,12.02
2017-10-24T02:55:04.930Z,11.99
2017-10-24T02:56:04.921Z,11.86
2017-10-24T02:57:04.915Z,11.83
2017-10-24T02:58:04.894Z,11.95
2017-10-24T02:59:04.874Z,11.86
2017-10-24T03:00:05.300Z,11.91
2017-10-24T03:01:04.850Z,11.99
2017-10-24T03:02:04.839Z,11.98
2017-10-24T03:03:04.822Z,11.94
2017-10-24T03:04:04.804Z,11.94
2017-10-24T03:05:04.793Z,11.90
2017-10-24T03:06:04.855Z,11.94
2017-10-24T03:07:04.767Z,11.94
2017-10-24T03:08:04.748Z,11.96
2017-10-24T03:09:04.734Z,12.02
2017-10-24T03:10:04.727Z,11.98
2017-10-24T03:11:04.723Z,11.79
2017-10-24T03:12:04.748Z,11.96
2017-10-24T03:13:04.689Z,11.94
2017-10-24T03:14:04.671Z,11.98
2017-10-24T03:15:04.666Z,11.94
2017-10-24T03:16:04.640Z,11.91
2017-10-24T03:17:04.629Z,11.95
2017-10-24T03:18:04.671Z,11.85
2017-10-24T03:19:04.604Z,11.98
2017-10-24T03:20:04.586Z,11.94
2017-10-24T03:21:04.573Z,11.94
2017-10-24T03:22:04.558Z,11.94
2017-10-24T03:23:04.544Z,11.94
2017-10-24T03:24:04.585Z,12.02
2017-10-24T03:25:04.518Z,11.96
2017-10-24T03:26:04.504Z,11.95
2017-10-24T03:27:04.487Z,12.01
2017-10-24T03:28:04.475Z,11.98
2017-10-24T03:29:04.494Z,11.96
2017-10-24T03:30:04.515Z,11.96
2017-10-24T03:31:04.431Z,11.98
2017-10-24T03:32:04.428Z,11.98
2017-10-24T03:33:04.410Z,12.01
2017-10-24T03:34:04.398Z,11.96
2017-10-24T03:35:04.378Z,11.90
2017-10-24T03:36:04.739Z,11.91
2017-10-24T03:37:04.354Z,11.96
2017-10-24T03:38:04.342Z,11.98
2017-10-24T03:39:04.325Z,12.07
2017-10-24T03:40:04.313Z,11.94
2017-10-24T03:41:04.317Z,11.95
2017-10-24T03:42:04.403Z,11.95
2017-10-24T03:43:04.274Z,11.99
2017-10-24T03:44:04.256Z,12.02
2017-10-24T03:45:04.244Z,11.98
2017-10-24T03:46:04.232Z,12.07
2017-10-24T03:47:04.221Z,12.07
2017-10-24T03:48:04.238Z,12.02
2017-10-24T03:49:04.191Z,12.07
2017-10-24T03:50:04.176Z,12.02
2017-10-24T03:51:04.161Z,12.02
2017-10-24T03:52:04.282Z,12.05
2017-10-24T03:53:04.146Z,12.01
2017-10-24T03:54:04.127Z,12.09
2017-10-24T03:55:04.107Z,12.10
2017-10-24T03:56:04.093Z,12.04
2017-10-24T03:57:04.084Z,12.10
2017-10-24T03:58:04.224Z,12.01
2017-10-24T03:59:04.063Z,12.09
2017-10-24T04:00:04.040Z,11.96
2017-10-24T04:01:04.027Z,12.01
2017-10-24T04:02:04.011Z,12.02
2017-10-24T04:03:04.001Z,12.09
2017-10-24T04:04:04.127Z,12.05
2017-10-24T04:05:03.974Z,12.02
2017-10-24T04:06:03.962Z,11.98
2017-10-24T04:07:03.942Z,12.10
2017-10-24T04:08:03.934Z,11.98
2017-10-24T04:09:03.916Z,12.01
2017-10-24T04:10:04.043Z,12.04
2017-10-24T04:11:03.892Z,12.02
2017-10-24T04:12:03.893Z,12.10
2017-10-24T04:13:03.870Z,12.01
2017-10-24T04:14:03.851Z,12.09
2017-10-24T04:15:03.844Z,12.02
2017-10-24T04:16:03.896Z,12.07
2017-10-24T04:17:03.815Z,12.05
2017-10-24T04:18:03.814Z,12.02
2017-10-24T04:19:03.785Z,12.10
2017-10-24T04:20:03.770Z,12.04
2017-10-24T04:21:03.763Z,12.12
2017-10-24T04:22:03.799Z,12.07
2017-10-24T04:23:03.733Z,12.05
2017-10-24T04:24:03.716Z,12.02
2017-10-24T04:25:03.712Z,12.05
2017-10-24T04:26:03.692Z,12.09
2017-10-24T04:27:03.672Z,12.12
2017-10-24T04:28:03.892Z,12.05
2017-10-24T04:29:03.654Z,12.14
2017-10-24T04:30:03.632Z,12.14
2017-10-24T04:31:03.634Z,12.09
2017-10-24T04:32:03.622Z,12.14
2017-10-24T04:33:03.593Z,12.14
2017-10-24T04:34:03.644Z,12.10
2017-10-24T04:35:03.565Z,12.19
2017-10-24T04:36:03.556Z,12.20
2017-10-24T04:37:03.545Z,12.16
2017-10-24T04:38:03.531Z,12.23
2017-10-24T04:39:03.512Z,12.27
2017-10-24T04:40:03.862Z,12.17
2017-10-24T04:41:03.497Z,12.23
2017-10-24T04:42:03.483Z,12.23
2017-10-24T04:43:03.472Z,12.19
2017-10-24T04:44:03.469Z,12.21
2017-10-24T04:45:03.446Z,12.24
2017-10-24T04:46:03.799Z,12.20
2017-10-24T04:47:03.418Z,12.24
2017-10-24T04:48:03.414Z,12.20
2017-10-24T04:49:03.379Z,12.17
2017-10-24T04:50:03.382Z,12.28
2017-10-24T04:51:03.363Z,12.20
2017-10-24T04:52:03.502Z,12.20
2017-10-24T04:53:03.330Z,12.29
2017-10-24T04:54:03.329Z,12.28
2017-10-24T04:55:03.313Z,12.17
2017-10-24T04:56:03.299Z,12.24
2017-10-24T04:57:03.282Z,12.32
2017-10-24T04:58:03.332Z,12.27
2017-10-24T04:59:03.257Z,12.27
2017-10-24T05:00:03.253Z,12.28
2017-10-24T05:01:03.232Z,12.27
2017-10-24T05:02:03.210Z,12.37
2017-10-24T05:03:03.200Z,12.32
2017-10-24T05:04:03.522Z,12.32
2017-10-24T05:05:03.176Z,12.32
2017-10-24T05:06:03.157Z,12.34
2017-10-24T05:07:03.150Z,12.32
2017-10-24T05:08:03.139Z,12.24
2017-10-24T05:09:03.119Z,12.27
2017-10-24T05:10:03.184Z,12.32
2017-10-24T05:11:03.099Z,12.37
2017-10-24T05:12:03.083Z,12.35
2017-10-24T05:13:03.068Z,12.24
2017-10-24T05:14:03.057Z,12.38
2017-10-24T05:15:03.040Z,12.31
2017-10-24T05:16:03.418Z,12.32
2017-10-24T05:17:03.026Z,12.24
2017-10-24T05:18:03.013Z,12.32
2017-10-24T05:19:02.985Z,12.28
2017-10-24T05:20:02.983Z,12.34
2017-10-24T05:21:02.953Z,12.39
2017-10-24T05:22:03.081Z,12.35
2017-10-24T05:23:02.939Z,12.41
2017-10-24T05:24:02.922Z,12.29
2017-10-24T05:25:02.911Z,12.37
2017-10-24T05:26:02.893Z,12.35
2017-10-24T05:27:02.881Z,12.35
2017-10-24T05:28:03.021Z,12.32
2017-10-24T05:29:02.861Z,12.35
2017-10-24T05:30:02.854Z,12.37
2017-10-24T05:31:02.820Z,12.41
2017-10-24T05:32:02.809Z,12.27
2017-10-24T05:33:02.794Z,12.35
2017-10-24T05:34:02.824Z,12.37
2017-10-24T05:35:02.775Z,12.29
2017-10-24T05:36:02.753Z,12.37
2017-10-24T05:37:02.748Z,12.38
2017-10-24T05:38:02.801Z,12.35
2017-10-24T05:39:02.719Z,12.37
2017-10-24T05:40:02.709Z,12.39
2017-10-24T05:41:02.698Z,12.31
2017-10-24T05:42:02.679Z,12.47
2017-10-24T05:43:02.667Z,12.41
2017-10-24T05:44:02.710Z,12.34
2017-10-24T05:45:02.638Z,12.38
2017-10-24T05:46:02.623Z,12.35
2017-10-24T05:47:02.610Z,12.41
2017-10-24T05:48:02.600Z,12.45
2017-10-24T05:49:02.589Z,12.41
2017-10-24T05:50:02.718Z,12.42
2017-10-24T05:51:02.553Z,12.42
2017-10-24T05:52:02.542Z,12.45
2017-10-24T05:53:02.526Z,12.49
2017-10-24T05:54:02.515Z,12.47
2017-10-24T05:55:02.513Z,12.47
2017-10-24T05:56:02.527Z,12.42
2017-10-24T05:57:02.481Z,12.46
2017-10-24T05:58:02.470Z,12.38
2017-10-24T05:59:02.511Z,12.42
2017-10-24T06:00:02.444Z,12.38
2017-10-24T06:01:02.428Z,12.37
2017-10-24T06:02:02.411Z,12.39
2017-10-24T06:03:02.399Z,12.41
2017-10-24T06:04:02.389Z,12.42
2017-10-24T06:05:02.449Z,12.39
2017-10-24T06:06:02.357Z,12.47
2017-10-24T06:07:02.341Z,12.47
2017-10-24T06:08:02.327Z,12.37
2017-10-24T06:09:02.319Z,12.42
2017-10-24T06:10:02.311Z,12.41
2017-10-24T06:11:02.350Z,12.49
2017-10-24T06:12:02.285Z,12.39
2017-10-24T06:13:02.266Z,12.47
2017-10-24T06:14:02.265Z,12.39
2017-10-24T06:15:02.239Z,12.38
2017-10-24T06:16:02.241Z,12.41
2017-10-24T06:17:02.253Z,12.37
2017-10-24T06:18:02.204Z,12.41
2017-10-24T06:19:02.187Z,12.39
2017-10-24T06:20:02.167Z,12.47
2017-10-24T06:21:02.154Z,12.56
2017-10-24T06:22:02.142Z,12.54
2017-10-24T06:23:02.460Z,12.54
2017-10-24T06:24:02.111Z,12.47
2017-10-24T06:25:02.105Z,12.54
2017-10-24T06:26:02.081Z,12.54
2017-10-24T06:27:02.089Z,12.54
2017-10-24T06:28:02.060Z,12.57
2017-10-24T06:29:02.204Z,12.54
2017-10-24T06:30:02.037Z,12.53
2017-10-24T06:31:02.020Z,12.49
2017-10-24T06:32:02.010Z,12.49
2017-10-24T06:33:01.997Z,12.52
2017-10-24T06:34:01.977Z,12.53
2017-10-24T06:35:02.040Z,12.54
2017-10-24T06:36:01.957Z,12.57
2017-10-24T06:37:01.950Z,12.50
2017-10-24T06:38:01.928Z,12.57
2017-10-24T06:39:01.920Z,12.53
2017-10-24T06:40:01.900Z,12.56
2017-10-24T06:41:01.951Z,12.54
2017-10-24T06:42:01.874Z,12.42
2017-10-24T06:43:01.861Z,12.53
2017-10-24T06:44:01.848Z,12.49
2017-10-24T06:45:01.838Z,12.54
2017-10-24T06:46:01.822Z,12.52
2017-10-24T06:47:01.884Z,12.56
2017-10-24T06:48:01.799Z,12.52
2017-10-24T06:49:01.789Z,12.56
2017-10-24T06:50:01.765Z,12.49
2017-10-24T06:51:01.765Z,12.60
2017-10-24T06:52:01.740Z,12.54
2017-10-24T06:53:01.758Z,12.49
2017-10-24T06:54:01.712Z,12.46
2017-10-24T06:55:01.761Z,12.52
2017-10-24T06:56:01.693Z,12.49
2017-10-24T06:57:01.680Z,12.49
2017-10-24T06:58:01.668Z,12.50
2017-10-24T06:59:01.662Z,12.57
2017-10-24T07:00:01.645Z,12.49
2017-10-24T07:01:01.661Z,12.50
2017-10-24T07:02:01.608Z,12.47
2017-10-24T07:03:01.599Z,12.57
2017-10-24T07:04:01.577Z,12.53
2017-10-24T07:05:01.577Z,12.54
2017-10-24T07:06:01.705Z,12.53
2017-10-24T07:07:01.538Z,12.59
2017-10-24T07:08:01.533Z,12.59
2017-10-24T07:09:01.516Z,12.59
2017-10-24T07:10:01.514Z,12.62
2017-10-24T07:11:01.498Z,12.57
2017-10-24T07:12:01.693Z,12.56
2017-10-24T07:13:01.467Z,12.57
2017-10-24T07:14:01.459Z,12.56
2017-10-24T07:15:01.468Z,12.60
2017-10-24T07:16:01.430Z,12.59
2017-10-24T07:17:02.401Z,12.64
2017-10-24T07:18:01.492Z,12.64
2017-10-24T07:19:01.392Z,12.67
2017-10-24T07:20:01.452Z,12.64
2017-10-24T07:21:01.367Z,12.68
2017-10-24T07:22:01.350Z,12.70
2017-10-24T07:23:01.331Z,12.72
2017-10-24T07:24:01.538Z,12.64
2017-10-24T07:25:01.306Z,12.70
2017-10-24T07:26:01.292Z,12.72
2017-10-24T07:27:01.284Z,12.71
2017-10-24T07:28:01.268Z,12.70
2017-10-24T07:29:01.252Z,12.75
2017-10-24T07:30:01.295Z,12.71
2017-10-24T07:31:01.225Z,12.72
2017-10-24T07:32:01.214Z,12.74
2017-10-24T07:33:01.205Z,12.67
2017-10-24T07:34:01.186Z,12.65
2017-10-24T07:35:01.177Z,12.70
2017-10-24T07:36:01.199Z,12.75
2017-10-24T07:37:01.150Z,12.74
2017-10-24T07:38:01.137Z,12.71
2017-10-24T07:39:01.122Z,12.75
2017-10-24T07:40:01.106Z,12.72
2017-10-24T07:41:01.139Z,12.77
2017-10-24T07:42:01.243Z,12.79
2017-10-24T07:43:01.076Z,12.72
2017-10-24T07:44:01.055Z,12.77
2017-10-24T07:45:01.074Z,12.72
2017-10-24T07:46:01.118Z,12.78
2017-10-24T07:47:01.025Z,12.74
2017-10-24T07:48:01.015Z,12.75
2017-10-24T07:49:01.012Z,12.74
2017-10-24T07:50:00.984Z,12.71
2017-10-24T07:51:00.968Z,12.70
2017-10-24T07:52:01.402Z,12.79
2017-10-24T07:53:00.935Z,12.78
2017-10-24T07:54:00.939Z,12.74
2017-10-24T07:55:00.908Z,12.79
2017-10-24T07:56:00.906Z,12.79
2017-10-24T07:57:00.884Z,12.82
2017-10-24T07:58:00.972Z,12.78
2017-10-24T07:59:00.859Z,12.79
2017-10-24T08:00:00.849Z,12.79
2017-10-24T08:01:00.833Z,12.78
2017-10-24T08:02:00.825Z,12.79
2017-10-24T08:03:00.806Z,12.85
2017-10-24T08:04:00.838Z,12.79
2017-10-24T08:05:00.790Z,12.79
2017-10-24T08:06:00.783Z,12.77
2017-10-24T08:07:00.797Z,12.82
2017-10-24T08:08:00.937Z,12.79
2017-10-24T08:09:00.736Z,12.86
2017-10-24T08:10:00.728Z,12.87
2017-10-24T08:11:00.710Z,12.89
2017-10-24T08:12:00.851Z,12.89
2017-10-24T08:13:00.686Z,12.85
2017-10-24T08:14:00.676Z,12.87
2017-10-24T08:15:00.654Z,12.86
2017-10-24T08:16:00.641Z,12.90
2017-10-24T08:17:00.632Z,12.82
2017-10-24T08:18:00.751Z,12.82
2017-10-24T08:19:00.716Z,12.78
2017-10-24T08:20:00.587Z,12.79
2017-10-24T08:21:00.582Z,12.85
2017-10-24T08:22:00.577Z,12.82
2017-10-24T08:23:00.556Z,12.85
2017-10-24T08:24:00.602Z,12.78
2017-10-24T08:25:00.528Z,12.79
2017-10-24T08:26:00.504Z,12.78
2017-10-24T08:27:00.496Z,12.82
2017-10-24T08:28:00.493Z,12.82
2017-10-24T08:29:00.485Z,12.78
2017-10-24T08:30:00.601Z,12.72
2017-10-24T08:31:00.444Z,12.79
2017-10-24T08:32:21.442Z,12.74
2017-10-24T08:33:00.467Z,12.74
2017-10-24T08:34:00.452Z,12.70
2017-10-24T08:35:00.393Z,12.82
2017-10-24T08:36:00.487Z,12.74
2017-10-24T08:37:00.368Z,12.71
2017-10-24T08:38:00.356Z,12.78
2017-10-24T08:39:00.346Z,12.70
2017-10-24T08:40:00.332Z,12.74
2017-10-24T08:41:00.326Z,12.67
2017-10-24T08:42:00.448Z,12.74
2017-10-24T08:43:00.293Z,12.74
2017-10-24T08:44:00.283Z,12.78
2017-10-24T08:45:00.275Z,12.79
2017-10-24T08:46:00.342Z,12.79
2017-10-24T08:47:00.235Z,12.82
2017-10-24T08:48:00.254Z,12.92
2017-10-24T08:49:00.213Z,12.87
2017-10-24T08:50:00.206Z,12.90
2017-10-24T08:51:00.182Z,12.93
2017-10-24T08:52:00.197Z,12.93
2017-10-24T08:53:00.163Z,12.96
2017-10-24T08:54:00.151Z,12.92
2017-10-24T08:55:00.164Z,12.93
2017-10-24T08:56:00.135Z,12.97
2017-10-24T08:57:00.187Z,12.95
2017-10-24T08:58:00.105Z,13.04
2017-10-24T08:59:00.090Z,13.03
2017-10-24T09:00:00.084Z,13.05
2017-10-24T09:01:00.072Z,13.07
2017-10-24T09:02:00.055Z,13.05
2017-10-24T09:03:00.106Z,13.12
2017-10-24T09:04:00.031Z,13.11
2017-10-24T09:05:00.021Z,13.04
2017-10-24T09:06:00.007Z,13.11
2017-10-24T09:06:59.980Z,13.10
2017-10-24T09:07:59.967Z,13.05
2017-10-24T09:09:00.102Z,13.07
2017-10-24T09:09:59.951Z,13.05
2017-10-24T09:10:59.935Z,13.03
2017-10-24T09:11:59.925Z,13.10
2017-10-24T09:12:59.904Z,13.12
2017-10-24T09:13:59.892Z,13.15
2017-10-24T09:14:59.953Z,13.15
2017-10-24T09:15:59.869Z,13.25
2017-10-24T09:16:59.878Z,13.26
2017-10-24T09:17:59.859Z,13.19
2017-10-24T09:18:59.828Z,13.22
2017-10-24T09:19:59.828Z,13.19
2017-10-24T09:21:00.110Z,13.20
2017-10-24T09:21:59.807Z,13.19
2017-10-24T09:22:59.803Z,13.14
2017-10-24T09:23:59.767Z,13.10
2017-10-24T09:24:59.764Z,13.10
2017-10-24T09:25:59.744Z,13.07
2017-10-24T09:26:59.991Z,13.07
2017-10-24T09:27:59.736Z,13.08
2017-10-24T09:28:59.705Z,13.10
2017-10-24T09:29:59.717Z,13.05
2017-10-24T09:30:59.680Z,13.08
2017-10-24T09:31:59.679Z,13.08
2017-10-24T09:32:59.992Z,12.96
2017-10-24T09:33:59.640Z,12.96
2017-10-24T09:34:59.634Z,13.03
2017-10-24T09:35:59.616Z,13.03
2017-10-24T09:36:59.608Z,13.03
2017-10-24T09:37:59.589Z,13.04
2017-10-24T09:38:59.711Z,12.96
2017-10-24T09:39:59.562Z,13.03
2017-10-24T09:40:59.549Z,13.00
2017-10-24T09:41:59.539Z,12.96
2017-10-24T09:42:59.534Z,13.04
2017-10-24T09:43:59.603Z,12.93
2017-10-24T09:44:59.563Z,13.03
2017-10-24T09:45:59.558Z,13.07
2017-10-24T09:46:59.489Z,13.10
2017-10-24T09:47:59.466Z,13.15
2017-10-24T09:48:59.450Z,13.12
2017-10-24T09:49:59.453Z,13.25
2017-10-24T09:50:59.614Z,13.22
2017-10-24T09:51:59.420Z,13.19
2017-10-24T09:52:59.413Z,13.17
2017-10-24T09:53:59.406Z,13.29
2017-10-24T09:54:59.374Z,13.28
2017-10-24T09:55:59.598Z,13.29
2017-10-24T09:56:59.489Z,13.29
2017-10-24T09:57:59.352Z,13.32
2017-10-24T09:58:59.333Z,13.30
2017-10-24T09:59:59.308Z,13.38
2017-10-24T10:00:59.299Z,13.38
2017-10-24T10:01:59.288Z,13.36
2017-10-24T10:02:59.333Z,13.33
2017-10-24T10:03:59.263Z,13.41
2017-10-24T10:04:59.248Z,13.28
2017-10-24T10:05:59.238Z,13.39
2017-10-24T10:06:59.228Z,13.42
2017-10-24T10:07:59.222Z,13.42
2017-10-24T10:08:59.287Z,13.45
2017-10-24T10:09:59.192Z,13.52
2017-10-24T10:10:59.183Z,13.51
2017-10-24T10:11:59.170Z,13.44
2017-10-24T10:12:59.148Z,13.51
2017-10-24T10:13:59.135Z,13.52
2017-10-24T10:14:59.268Z,13.46
2017-10-24T10:15:59.116Z,13.48
2017-10-24T10:16:59.099Z,13.52
2017-10-24T10:17:59.091Z,13.49
2017-10-24T10:18:59.080Z,13.52
2017-10-24T10:19:59.062Z,13.51
2017-10-24T10:20:59.198Z,13.52
2017-10-24T10:21:59.036Z,13.48
2017-10-24T10:22:59.028Z,13.54
2017-10-24T10:23:59.021Z,13.51
2017-10-24T10:24:59.021Z,13.57
2017-10-24T10:25:58.987Z,13.55
2017-10-24T10:26:59.120Z,13.55
2017-10-24T10:27:58.968Z,13.46
2017-10-24T10:28:58.953Z,13.51
2017-10-24T10:29:58.942Z,13.52
2017-10-24T10:30:58.930Z,13.51
2017-10-24T10:31:58.920Z,13.55
2017-10-24T10:32:58.971Z,13.55
2017-10-24T10:33:58.894Z,13.54
2017-10-24T10:34:58.889Z,13.49
2017-10-24T10:35:58.877Z,13.55
2017-10-24T10:36:58.855Z,13.49
2017-10-24T10:37:58.844Z,13.45
2017-10-24T10:38:58.896Z,13.54
2017-10-24T10:39:58.817Z,13.48
2017-10-24T10:40:58.802Z,13.49
2017-10-24T10:41:58.794Z,13.63
2017-10-24T10:42:58.776Z,13.60
2017-10-24T10:43:58.765Z,13.60
2017-10-24T10:44:58.891Z,13.64
2017-10-24T10:45:58.742Z,13.62
2017-10-24T10:46:58.730Z,13.62
2017-10-24T10:47:58.714Z,13.57
2017-10-24T10:48:58.712Z,13.54
2017-10-24T10:49:58.692Z,13.64
2017-10-24T10:50:59.048Z,13.64
2017-10-24T10:51:58.673Z,13.59
2017-10-24T10:52:58.653Z,13.66
2017-10-24T10:53:58.641Z,13.69
2017-10-24T10:54:58.629Z,13.67
2017-10-24T10:55:58.615Z,13.67
2017-10-24T10:56:58.968Z,13.69
2017-10-24T10:57:58.600Z,13.63
2017-10-24T10:58:58.583Z,13.66
2017-10-24T10:59:58.569Z,13.67
2017-10-24T11:00:58.557Z,13.67
2017-10-24T11:01:58.546Z,13.67
2017-10-24T11:02:58.671Z,13.70
2017-10-24T11:03:58.535Z,13.69
2017-10-24T11:04:58.505Z,13.77
2017-10-24T11:05:58.505Z,13.73
2017-10-24T11:06:58.488Z,13.77
2017-10-24T11:07:58.469Z,13.75
2017-10-24T11:08:58.497Z,13.87
2017-10-24T11:09:58.445Z,13.85
2017-10-24T11:10:58.432Z,13.79
2017-10-24T11:11:58.430Z,13.89
2017-10-24T11:12:58.413Z,13.88
2017-10-24T11:13:58.523Z,13.91
2017-10-24T11:14:58.393Z,13.92
2017-10-24T11:15:58.377Z,13.92
2017-10-24T11:16:58.366Z,13.91
2017-10-24T11:17:58.357Z,13.96
2017-10-24T11:18:58.340Z,14.00
2017-10-24T11:19:58.393Z,13.91
2017-10-24T11:20:58.315Z,14.02
2017-10-24T11:21:58.313Z,14.06
2017-10-24T11:22:58.290Z,14.06
2017-10-24T11:23:58.287Z,14.07
2017-10-24T11:24:58.266Z,14.12
2017-10-24T11:25:58.399Z,14.07
2017-10-24T11:26:58.241Z,14.07
2017-10-24T11:27:58.232Z,14.03
2017-10-24T11:28:58.223Z,14.15
2017-10-24T11:29:58.222Z,14.14
2017-10-24T11:30:58.202Z,14.20
2017-10-24T11:31:58.250Z,14.21
2017-10-24T11:32:58.171Z,14.17
2017-10-24T11:33:58.166Z,14.17
2017-10-24T11:34:58.152Z,14.20
2017-10-24T11:35:58.149Z,14.12
2017-10-24T11:36:58.120Z,14.14
2017-10-24T11:37:58.154Z,14.17
2017-10-24T11:38:58.110Z,14.22
2017-10-24T11:39:58.086Z,14.18
2017-10-24T11:40:58.140Z,14.21
2017-10-24T11:41:58.068Z,14.21
2017-10-24T11:42:58.057Z,14.20
2017-10-24T11:43:58.046Z,14.24
2017-10-24T11:44:58.030Z,14.22
2017-10-24T11:45:58.022Z,14.22
2017-10-24T11:46:58.087Z,14.25
2017-10-24T11:47:57.991Z,14.25
2017-10-24T11:48:57.995Z,14.33
2017-10-24T11:49:57.974Z,14.32
2017-10-24T11:50:57.959Z,14.29
2017-10-24T11:51:57.953Z,14.29
2017-10-24T11:52:57.959Z,14.29
2017-10-24T11:53:57.918Z,14.32
2017-10-24T11:54:57.905Z,14.29
2017-10-24T11:55:57.951Z,14.28
2017-10-24T11:56:58.029Z,14.32
2017-10-24T11:57:57.880Z,14.27
2017-10-24T11:58:57.866Z,14.22
2017-10-24T11:59:57.849Z,14.22
2017-10-24T12:00:57.839Z,14.21
2017-10-24T12:01:57.840Z,14.32
2017-10-24T12:03:00.149Z,14.32
2017-10-24T12:04:17.501Z,14.28
2017-10-24T12:04:59.553Z,14.40
2017-10-24T12:05:57.828Z,14.42
2017-10-24T12:06:57.837Z,14.39
2017-10-24T12:07:57.759Z,14.42
2017-10-24T12:08:57.895Z,14.46
2017-10-24T12:09:57.739Z,14.50
2017-10-24T12:10:57.721Z,14.46
2017-10-24T12:11:57.711Z,14.55
2017-10-24T12:12:57.716Z,14.46
2017-10-24T12:13:57.692Z,14.57
2017-10-24T12:14:57.747Z,14.60
2017-10-24T12:15:57.667Z,14.73
2017-10-24T12:16:57.664Z,14.65
2017-10-24T12:17:57.644Z,14.69
2017-10-24T12:18:57.631Z,14.69
2017-10-24T12:19:57.616Z,14.69
2017-10-24T12:20:57.965Z,14.72
2017-10-24T12:21:57.598Z,14.72
2017-10-24T12:22:57.583Z,14.70
2017-10-24T12:23:57.565Z,14.70
2017-10-24T12:24:57.561Z,14.77
2017-10-24T12:25:57.549Z,14.78
2017-10-24T12:26:57.967Z,14.81
2017-10-24T12:27:57.523Z,14.80
2017-10-24T12:28:57.529Z,14.80
2017-10-24T12:29:57.510Z,14.80
2017-10-24T12:30:57.498Z,14.84
2017-10-24T12:31:57.491Z,14.81
2017-10-24T12:32:59.720Z,14.83
2017-10-24T12:34:25.998Z,14.81
2017-10-24T12:34:57.447Z,14.80
2017-10-24T12:35:57.471Z,14.84
2017-10-24T12:36:57.427Z,14.86
2017-10-24T12:37:57.591Z,14.92
2017-10-24T12:38:57.429Z,14.83
2017-10-24T12:39:57.395Z,14.95
2017-10-24T12:40:57.380Z,14.86
2017-10-24T12:41:58.086Z,14.86
2017-10-24T12:42:57.370Z,14.99
2017-10-24T12:43:57.714Z,14.96
2017-10-24T12:44:57.361Z,14.94
2017-10-24T12:45:57.337Z,14.98
2017-10-24T12:48:43.410Z,14.98
2017-10-24T12:49:43.292Z,14.96
2017-10-24T12:50:42.761Z,14.99
2017-10-24T12:57:00.467Z,15.13
2017-10-24T12:57:54.668Z,15.09
2017-10-24T12:58:54.635Z,15.03